Time;durP1;ratioP1;P1;durP2;ratioP2;P2;SDS_P1;SDS_P2;PMS_P1;PMS_P2;Temp;Humidity;BMP_temperature;BMP_pressure;BME280_temperature;BME280_humidity;BME280_pressure;Samples;Min_cycle;Max_cycle;Signal;HPM_P1;HPM_P2
2023/03/08 00:01:26;;;;;;;9.20;6.22;;;2.90;82.50;;;;;;5034348;28;20408;-76
2023/03/08 00:03:53;;;;;;;12.90;5.50;;;2.90;82.80;;;;;;5026145;28;20384;-76
2023/03/08 00:06:19;;;;;;;8.80;5.22;;;2.90;81.20;;;;;;5034789;28;20459;-75
2023/03/08 00:08:47;;;;;;;9.50;6.00;;;3.10;78.80;;;;;;5036339;28;20405;-76
2023/03/08 00:11:12;;;;;;;12.40;6.35;;;3.00;77.10;;;;;;5025165;28;20869;-78
2023/03/08 00:13:39;;;;;;;7.43;5.50;;;3.00;78.30;;;;;;5018671;28;20413;-76
2023/03/08 00:16:07;;;;;;;9.75;6.32;;;3.10;79.20;;;;;;5013738;28;20395;-76
2023/03/08 00:18:34;;;;;;;7.97;5.97;;;3.00;79.60;;;;;;5013813;28;20477;-77
2023/03/08 00:21:06;;;;;;;9.52;5.97;;;3.00;80.80;;;;;;5014177;28;20412;-77
2023/03/08 00:23:31;;;;;;;12.95;6.32;;;2.80;82.10;;;;;;5013710;28;20400;-77
2023/03/08 00:25:57;;;;;;;11.82;6.25;;;2.90;83.70;;;;;;5013985;28;20385;-76
2023/03/08 00:28:23;;;;;;;7.40;5.30;;;2.90;83.80;;;;;;5033726;22;20557;-74
2023/03/08 00:31:03;;;;;;;11.10;5.87;;;2.90;84.80;;;;;;5032295;28;20504;-72
2023/03/08 00:33:29;;;;;;;8.00;5.80;;;3.10;83.30;;;;;;5032310;28;20390;-72
2023/03/08 00:36:01;;;;;;;8.65;6.22;;;2.90;83.40;;;;;;5032033;28;20391;-72
2023/03/08 00:38:29;;;;;;;12.05;6.00;;;2.90;84.90;;;;;;5031401;28;20882;-74
2023/03/08 00:40:54;;;;;;;10.48;6.22;;;2.80;86.10;;;;;;5031255;28;20433;-73
2023/03/08 00:43:20;;;;;;;8.52;5.30;;;2.80;87.10;;;;;;5031678;28;20379;-73
2023/03/08 00:45:45;;;;;;;9.60;6.20;;;2.80;88.30;;;;;;5031519;28;20887;-73
2023/03/08 00:48:11;;;;;;;8.17;6.10;;;2.70;89.00;;;;;;5031403;28;20799;-73
2023/03/08 00:50:37;;;;;;;13.30;6.33;;;2.70;91.00;;;;;;5031521;28;20383;-73
2023/03/08 00:53:02;;;;;;;12.02;6.15;;;2.80;90.50;;;;;;5031417;28;20725;-73
2023/03/08 00:55:28;;;;;;;9.70;5.85;;;2.70;90.00;;;;;;5032607;28;20383;-73
2023/03/08 00:57:53;;;;;;;11.15;5.90;;;2.70;90.60;;;;;;5033954;28;20398;-73
2023/03/08 01:00:19;;;;;;;8.93;6.50;;;2.80;90.90;;;;;;5032314;28;20476;-73
2023/03/08 01:02:45;;;;;;;12.73;7.50;;;2.90;90.60;;;;;;5031159;28;20394;-72
2023/03/08 01:05:10;;;;;;;14.57;6.93;;;3.30;89.90;;;;;;5031098;28;20383;-73
2023/03/08 01:07:36;;;;;;;12.50;8.30;;;3.30;86.30;;;;;;5031188;28;20394;-72
2023/03/08 01:10:04;;;;;;;14.15;8.50;;;3.10;87.80;;;;;;5031042;28;20457;-72
2023/03/08 01:12:31;;;;;;;14.70;8.45;;;3.00;90.40;;;;;;5030754;28;20474;-72
2023/03/08 01:14:57;;;;;;;14.63;8.40;;;2.90;91.40;;;;;;5031854;28;20394;-71
2023/03/08 01:17:22;;;;;;;15.90;8.10;;;2.90;92.90;;;;;;5031746;28;20399;-73
2023/03/08 01:19:48;;;;;;;12.60;7.70;;;2.80;93.40;;;;;;5031378;28;20391;-72
2023/03/08 01:22:13;;;;;;;13.57;8.13;;;2.70;94.40;;;;;;5034646;28;20403;-71
2023/03/08 01:24:44;;;;;;;17.17;8.70;;;2.70;94.80;;;;;;5035127;28;20387;-72
2023/03/08 01:27:09;;;;;;;16.08;8.88;;;2.60;96.10;;;;;;5033218;28;20387;-71
2023/03/08 01:29:35;;;;;;;13.88;7.68;;;2.50;97.60;;;;;;5034654;28;20898;-73
2023/03/08 01:32:00;;;;;;;16.37;8.30;;;2.60;98.00;;;;;;5034098;28;20760;-72
2023/03/08 01:34:26;;;;;;;16.73;8.10;;;2.60;97.70;;;;;;5032678;28;20407;-73
2023/03/08 01:36:51;;;;;;;12.60;8.03;;;2.60;98.30;;;;;;5032977;28;20383;-72
2023/03/08 01:39:17;;;;;;;15.10;8.87;;;2.60;98.50;;;;;;5033274;28;20387;-72
2023/03/08 01:41:43;;;;;;;19.27;9.95;;;2.60;98.70;;;;;;5030620;28;20402;-73
2023/03/08 01:44:21;;;;;;;12.98;8.00;;;2.60;98.30;;;;;;5031013;28;20477;-71
2023/03/08 01:46:47;;;;;;;18.40;9.55;;;2.60;98.40;;;;;;5030721;28;20406;-71
2023/03/08 01:49:20;;;;;;;17.35;9.65;;;2.70;99.00;;;;;;5030974;28;20828;-71
2023/03/08 01:51:52;;;;;;;21.50;9.75;;;2.60;97.70;;;;;;5029800;28;20395;-73
2023/03/08 01:54:38;;;;;;;18.13;10.73;;;2.60;98.60;;;;;;5030571;28;20406;-73
2023/03/08 01:57:12;;;;;;;17.92;10.30;;;2.70;99.60;;;;;;5030308;28;20390;-74
2023/03/08 01:59:39;;;;;;;18.30;10.52;;;2.70;98.40;;;;;;5031353;28;20394;-72
2023/03/08 02:02:05;;;;;;;17.63;10.43;;;2.80;98.30;;;;;;5030871;28;20399;-72
2023/03/08 02:04:31;;;;;;;18.50;11.00;;;2.70;96.90;;;;;;5030365;28;20391;-71
2023/03/08 02:06:56;;;;;;;19.53;10.60;;;2.70;97.70;;;;;;5028932;28;20887;-71
2023/03/08 02:09:22;;;;;;;18.70;10.57;;;2.60;98.20;;;;;;5029035;28;20486;-73
2023/03/08 02:11:48;;;;;;;16.58;10.15;;;2.70;98.80;;;;;;5030561;28;20466;-72
2023/03/08 02:14:14;;;;;;;16.67;10.07;;;2.60;97.90;;;;;;5030128;28;20489;-73
2023/03/08 02:16:39;;;;;;;20.05;11.00;;;2.60;99.60;;;;;;5030322;28;20441;-72
2023/03/08 02:19:13;;;;;;;20.65;11.70;;;2.50;99.00;;;;;;5019652;28;20396;-72
2023/03/08 02:21:39;;;;;;;19.05;11.70;;;2.50;99.00;;;;;;5018622;28;20759;-73
2023/03/08 02:24:15;;;;;;;21.33;11.70;;;2.70;99.20;;;;;;5030168;28;20387;-73
2023/03/08 02:26:41;;;;;;;23.20;13.25;;;2.60;97.90;;;;;;5030352;28;20743;-73
2023/03/08 02:29:07;;;;;;;21.80;13.18;;;2.70;99.30;;;;;;5030368;28;20399;-72
2023/03/08 02:31:33;;;;;;;23.92;12.82;;;2.70;98.80;;;;;;5029721;28;20448;-71
2023/03/08 02:33:58;;;;;;;24.35;14.90;;;2.60;98.50;;;;;;5030516;28;20748;-74
2023/03/08 02:36:24;;;;;;;25.67;14.15;;;2.70;99.50;;;;;;5032540;28;20759;-77
2023/03/08 02:38:49;;;;;;;26.40;14.30;;;2.60;98.40;;;;;;5032534;28;20475;-72
2023/03/08 02:41:15;;;;;;;27.27;15.40;;;2.60;99.10;;;;;;5028934;28;20403;-73
2023/03/08 02:43:41;;;;;;;25.60;13.60;;;2.60;99.90;;;;;;5030486;28;20382;-72
2023/03/08 02:46:09;;;;;;;25.25;13.60;;;2.60;99.90;;;;;;5030499;28;20382;-72
2023/03/08 02:48:34;;;;;;;24.45;12.35;;;2.60;99.70;;;;;;5030052;28;20887;-72
2023/03/08 02:51:00;;;;;;;25.63;13.80;;;2.60;98.20;;;;;;5029822;28;20387;-72
2023/03/08 02:53:25;;;;;;;26.63;14.13;;;2.60;98.00;;;;;;5030193;28;20395;-72
2023/03/08 02:55:51;;;;;;;24.80;14.05;;;2.60;99.90;;;;;;5029966;28;20395;-72
2023/03/08 02:58:16;;;;;;;25.30;14.30;;;2.60;99.90;;;;;;5030152;28;20473;-73
2023/03/08 03:00:42;;;;;;;27.53;15.13;;;2.50;99.90;;;;;;5028517;28;20792;-71
2023/03/08 03:03:08;;;;;;;23.13;13.97;;;2.60;99.90;;;;;;5032194;28;20429;-73
2023/03/08 03:05:33;;;;;;;25.90;14.60;;;2.60;99.90;;;;;;5033266;28;20407;-73
2023/03/08 03:08:00;;;;;;;21.50;13.27;;;2.50;99.90;;;;;;5032856;28;20387;-72
2023/03/08 03:10:25;;;;;;;29.80;14.55;;;2.50;99.90;;;;;;5033096;28;20437;-73
2023/03/08 03:12:51;;;;;;;32.10;16.60;;;2.60;99.90;;;;;;5032743;28;20383;-73
2023/03/08 03:15:17;;;;;;;24.53;14.70;;;2.70;99.90;;;;;;5033269;28;20395;-71
2023/03/08 03:17:42;;;;;;;24.48;13.48;;;2.60;99.90;;;;;;5033062;28;20399;-74
2023/03/08 03:20:09;;;;;;;27.45;15.48;;;2.70;99.90;;;;;;5032825;28;20394;-73
2023/03/08 03:22:35;;;;;;;23.93;14.67;;;2.60;99.90;;;;;;5032422;28;20494;-73
2023/03/08 03:25:01;;;;;;;28.85;14.63;;;2.80;99.90;;;;;;5032696;28;20863;-73
2023/03/08 03:27:26;;;;;;;28.67;16.15;;;2.70;99.80;;;;;;5032720;28;20470;-72
2023/03/08 03:29:52;;;;;;;24.57;14.50;;;2.70;99.90;;;;;;5032353;28;20461;-73
2023/03/08 03:32:17;;;;;;;21.70;13.27;;;2.70;99.90;;;;;;5032680;28;20393;-73
2023/03/08 03:34:43;;;;;;;24.83;14.00;;;2.70;99.90;;;;;;5032703;28;20387;-74
2023/03/08 03:37:09;;;;;;;25.47;14.70;;;2.80;99.30;;;;;;5032791;28;20433;-72
2023/03/08 03:39:38;;;;;;;29.23;14.90;;;2.70;99.60;;;;;;5032762;28;20390;-72
2023/03/08 03:42:07;;;;;;;21.30;12.70;;;2.70;99.90;;;;;;5031245;28;20414;-72
2023/03/08 03:44:33;;;;;;;25.65;14.60;;;2.70;99.80;;;;;;5033218;28;20375;-72
2023/03/08 03:46:59;;;;;;;28.15;14.32;;;2.70;99.90;;;;;;5032818;28;20441;-72
2023/03/08 03:49:25;;;;;;;26.77;14.70;;;2.70;99.90;;;;;;5032916;28;20390;-73
2023/03/08 03:51:50;;;;;;;31.73;16.50;;;2.60;99.90;;;;;;5032601;28;20387;-74
2023/03/08 03:54:16;;;;;;;29.42;15.52;;;2.50;99.90;;;;;;5031386;28;20437;-72
2023/03/08 03:56:41;;;;;;;30.73;16.77;;;2.60;99.90;;;;;;5032537;28;20383;-73
2023/03/08 03:59:07;;;;;;;35.00;18.08;;;2.60;99.90;;;;;;5032234;28;20931;-73
2023/03/08 04:01:32;;;;;;;31.95;18.10;;;2.70;99.90;;;;;;5032337;28;20919;-72
2023/03/08 04:03:58;;;;;;;31.60;18.27;;;2.60;99.90;;;;;;5032725;28;20469;-72
2023/03/08 04:06:29;;;;;;;34.10;18.42;;;2.60;99.90;;;;;;5034804;28;20379;-73
2023/03/08 04:09:03;;;;;;;34.22;18.52;;;2.70;99.90;;;;;;5045963;28;20392;-74
2023/03/08 04:11:33;;;;;;;37.33;20.08;;;2.70;99.90;;;;;;5045699;28;20387;-73
2023/03/08 04:13:59;;;;;;;33.85;17.58;;;2.60;99.90;;;;;;5036425;28;20402;-72
2023/03/08 04:16:27;;;;;;;36.77;19.77;;;2.60;99.90;;;;;;5031150;28;20399;-73
2023/03/08 04:18:54;;;;;;;35.42;18.30;;;2.70;99.90;;;;;;5032219;28;20511;-73
2023/03/08 04:21:20;;;;;;;39.28;20.38;;;2.70;99.90;;;;;;5031984;28;20406;-72
2023/03/08 04:23:46;;;;;;;35.00;19.45;;;2.60;99.90;;;;;;5030793;28;20383;-72
2023/03/08 04:26:12;;;;;;;33.72;18.13;;;2.60;99.90;;;;;;5032234;28;20794;-72
2023/03/08 04:28:38;;;;;;;36.10;19.55;;;2.70;99.90;;;;;;5034018;28;20397;-74
2023/03/08 04:31:11;;;;;;;36.67;19.77;;;2.70;99.90;;;;;;5035899;28;20383;-73
2023/03/08 04:33:37;;;;;;;35.25;19.33;;;2.70;99.60;;;;;;5037243;28;20383;-74
2023/03/08 04:36:02;;;;;;;39.03;19.88;;;2.60;99.90;;;;;;5038058;28;20387;-72
2023/03/08 04:38:28;;;;;;;37.10;19.47;;;2.70;99.90;;;;;;5032971;28;20398;-74
2023/03/08 04:41:10;;;;;;;38.53;21.47;;;2.60;99.90;;;;;;5033833;28;20585;-73
2023/03/08 04:43:38;;;;;;;36.77;20.10;;;2.60;99.90;;;;;;5032775;28;20500;-73
2023/03/08 04:46:04;;;;;;;40.72;21.63;;;2.80;97.90;;;;;;5033929;28;20381;-74
2023/03/08 04:48:30;;;;;;;38.33;21.13;;;2.70;98.00;;;;;;5031817;28;20383;-72
2023/03/08 04:50:58;;;;;;;38.78;22.13;;;2.70;98.20;;;;;;5031360;28;20877;-72
2023/03/08 04:53:25;;;;;;;36.83;20.67;;;2.60;99.40;;;;;;5030212;28;20475;-73
2023/03/08 04:55:51;;;;;;;37.35;19.92;;;2.60;99.90;;;;;;5031218;28;20790;-74
2023/03/08 04:58:17;;;;;;;44.72;22.45;;;2.60;99.90;;;;;;5031751;28;20386;-72
2023/03/08 05:00:43;;;;;;;43.50;22.60;;;2.70;99.90;;;;;;5031443;28;20393;-73
2023/03/08 05:03:09;;;;;;;42.35;22.45;;;2.70;99.90;;;;;;5031474;28;20418;-73
2023/03/08 05:05:35;;;;;;;41.72;22.98;;;2.70;99.90;;;;;;5031256;28;20594;-72
2023/03/08 05:08:04;;;;;;;42.97;22.63;;;2.60;99.90;;;;;;5031249;28;20441;-73
2023/03/08 05:10:31;;;;;;;42.38;22.80;;;2.70;99.90;;;;;;5031233;28;20409;-73
2023/03/08 05:12:57;;;;;;;42.05;23.05;;;2.80;99.90;;;;;;5030652;28;20387;-73
2023/03/08 05:15:22;;;;;;;46.03;25.60;;;2.60;99.90;;;;;;5031234;28;20475;-72
2023/03/08 05:17:49;;;;;;;41.55;23.23;;;2.60;99.90;;;;;;5030941;28;20417;-72
2023/03/08 05:20:15;;;;;;;44.67;23.80;;;2.60;99.90;;;;;;5031108;28;20390;-73
2023/03/08 05:22:40;;;;;;;41.25;23.10;;;2.70;99.90;;;;;;5029341;28;20498;-73
2023/03/08 05:25:06;;;;;;;41.33;21.60;;;2.70;99.90;;;;;;5030534;28;20431;-72
2023/03/08 05:27:33;;;;;;;37.20;21.10;;;2.70;99.90;;;;;;5030962;28;20379;-72
2023/03/08 05:29:59;;;;;;;41.42;22.27;;;2.70;99.90;;;;;;5030860;28;20402;-74
2023/03/08 05:32:24;;;;;;;42.13;22.10;;;2.80;99.90;;;;;;5030723;28;20385;-74
2023/03/08 05:34:52;;;;;;;40.27;21.43;;;2.80;99.10;;;;;;5030664;28;20396;-71
2023/03/08 05:37:17;;;;;;;33.05;19.20;;;2.80;99.90;;;;;;5031537;28;20383;-73
2023/03/08 05:39:43;;;;;;;38.20;21.60;;;2.70;98.30;;;;;;5031048;28;20529;-72
2023/03/08 05:42:10;;;;;;;32.30;18.13;;;2.80;99.90;;;;;;5030434;28;20469;-72
2023/03/08 05:44:36;;;;;;;34.30;19.77;;;2.70;98.60;;;;;;5030371;28;20391;-73
2023/03/08 05:47:02;;;;;;;35.80;19.83;;;2.70;99.90;;;;;;5030393;28;20390;-72
2023/03/08 05:49:28;;;;;;;35.03;19.97;;;2.60;99.90;;;;;;5030518;28;20392;-73
2023/03/08 05:51:53;;;;;;;34.35;19.83;;;2.60;99.90;;;;;;5030196;28;20433;-73
2023/03/08 05:54:19;;;;;;;37.95;21.42;;;2.70;99.90;;;;;;5030986;28;20387;-73
2023/03/08 05:56:45;;;;;;;39.00;20.85;;;2.70;99.90;;;;;;5031044;28;20438;-73
2023/03/08 05:59:10;;;;;;;33.47;18.87;;;2.80;99.90;;;;;;5030292;28;20407;-73
2023/03/08 06:01:36;;;;;;;36.88;20.98;;;2.80;99.00;;;;;;5030337;28;20406;-73
2023/03/08 06:04:02;;;;;;;35.83;19.52;;;2.80;99.10;;;;;;5030650;28;20387;-72
2023/03/08 06:06:27;;;;;;;35.20;18.85;;;2.70;98.20;;;;;;5030577;28;20406;-74
2023/03/08 06:08:55;;;;;;;35.73;19.30;;;2.60;99.50;;;;;;5030646;28;20375;-71
2023/03/08 06:11:20;;;;;;;33.22;18.85;;;2.70;99.90;;;;;;5030708;28;20469;-73
2023/03/08 06:13:46;;;;;;;31.43;17.43;;;2.60;99.90;;;;;;5030680;28;20541;-72
2023/03/08 06:16:11;;;;;;;32.30;18.17;;;2.50;99.60;;;;;;5030843;28;20414;-74
2023/03/08 06:18:40;;;;;;;31.20;16.50;;;2.50;99.90;;;;;;5030520;28;20949;-72
2023/03/08 06:21:09;;;;;;;30.00;16.10;;;2.60;99.90;;;;;;5029934;28;20496;-73
2023/03/08 06:23:35;;;;;;;31.58;16.88;;;2.50;99.90;;;;;;5030061;28;20791;-72
2023/03/08 06:26:02;;;;;;;29.80;15.68;;;2.70;99.90;;;;;;5030201;28;20398;-72
2023/03/08 06:28:28;;;;;;;31.00;16.33;;;2.60;99.90;;;;;;5029507;28;20468;-74
2023/03/08 06:30:54;;;;;;;32.10;17.80;;;2.50;99.90;;;;;;5029763;28;20461;-72
2023/03/08 06:33:26;;;;;;;30.17;16.70;;;2.40;99.90;;;;;;5030356;28;20403;-73
2023/03/08 06:35:57;;;;;;;31.60;17.27;;;2.40;99.90;;;;;;5029033;28;20403;-72
2023/03/08 06:38:23;;;;;;;34.67;16.75;;;2.30;99.90;;;;;;5033719;28;20721;-74
2023/03/08 06:40:49;;;;;;;33.13;15.53;;;2.30;99.90;;;;;;5033790;28;20445;-73
2023/03/08 06:43:14;;;;;;;26.17;14.07;;;2.50;99.90;;;;;;5033670;28;20387;-73
2023/03/08 06:45:40;;;;;;;26.30;13.10;;;2.50;99.90;;;;;;5034337;28;20433;-73
2023/03/08 06:48:06;;;;;;;18.40;10.97;;;2.70;98.40;;;;;;5033971;28;20478;-74
2023/03/08 06:50:32;;;;;;;18.80;10.48;;;2.70;96.80;;;;;;5034466;28;20385;-73
2023/03/08 06:52:58;;;;;;;19.63;10.48;;;2.70;96.40;;;;;;5034785;28;20768;-74
2023/03/08 06:55:24;;;;;;;16.52;8.65;;;2.80;95.80;;;;;;5035459;28;20383;-73
2023/03/08 06:57:49;;;;;;;17.57;9.70;;;2.70;91.20;;;;;;5034430;28;20394;-73
2023/03/08 07:00:15;;;;;;;18.05;9.40;;;2.70;95.00;;;;;;5036179;28;20383;-73
2023/03/08 07:02:41;;;;;;;18.98;10.57;;;2.60;94.90;;;;;;5036279;28;20464;-73
2023/03/08 07:05:07;;;;;;;18.23;9.70;;;2.40;98.70;;;;;;5034236;28;20478;-73
2023/03/08 07:07:34;;;;;;;15.80;8.68;;;2.60;98.00;;;;;;5033726;28;20395;-73
2023/03/08 07:10:00;;;;;;;15.73;8.53;;;2.50;97.00;;;;;;5033467;28;20434;-72
2023/03/08 07:12:25;;;;;;;14.80;8.70;;;2.40;97.40;;;;;;5033677;28;20934;-72
2023/03/08 07:14:52;;;;;;;19.20;9.98;;;2.40;97.80;;;;;;5034549;28;20449;-74
2023/03/08 07:17:18;;;;;;;18.00;9.73;;;2.30;99.80;;;;;;5035148;28;20505;-72
2023/03/08 07:19:44;;;;;;;20.80;10.73;;;2.30;99.90;;;;;;5033510;28;20387;-73
2023/03/08 07:22:11;;;;;;;20.50;9.70;;;2.30;99.90;;;;;;5033329;28;20481;-73
2023/03/08 07:24:37;;;;;;;19.45;10.20;;;2.40;99.90;;;;;;5033554;28;20418;-73
2023/03/08 07:27:03;;;;;;;20.70;10.50;;;2.40;99.90;;;;;;5031572;28;20383;-74
2023/03/08 07:29:29;;;;;;;24.92;11.50;;;2.50;99.90;;;;;;5032578;28;20756;-73
2023/03/08 07:31:54;;;;;;;20.58;10.65;;;2.80;99.50;;;;;;5033162;28;20417;-71
2023/03/08 07:34:20;;;;;;;21.25;11.10;;;3.00;91.90;;;;;;5033174;28;20840;-72
2023/03/08 07:36:46;;;;;;;26.53;11.30;;;3.10;87.90;;;;;;5033631;28;20395;-72
2023/03/08 07:39:11;;;;;;;23.97;11.53;;;3.00;85.90;;;;;;5032930;28;20632;-72
2023/03/08 07:41:37;;;;;;;20.63;11.37;;;3.10;88.60;;;;;;5032642;28;20403;-73
2023/03/08 07:44:02;;;;;;;20.83;10.53;;;3.00;89.00;;;;;;5033234;28;20498;-74
2023/03/08 07:46:29;;;;;;;20.10;9.50;;;3.00;89.40;;;;;;5034046;28;20664;-73
2023/03/08 07:48:54;;;;;;;18.15;9.23;;;3.10;87.20;;;;;;5032380;28;20533;-73
2023/03/08 07:51:20;;;;;;;16.70;9.30;;;3.30;83.10;;;;;;5031378;28;20888;-73
2023/03/08 07:53:45;;;;;;;15.60;8.63;;;3.10;80.00;;;;;;5032696;28;20383;-73
2023/03/08 07:56:11;;;;;;;14.93;8.47;;;3.00;81.70;;;;;;5032394;28;20778;-73
2023/03/08 07:58:37;;;;;;;14.10;7.73;;;3.10;84.40;;;;;;5032802;28;20386;-72
2023/03/08 08:01:11;;;;;;;15.23;8.30;;;3.00;81.70;;;;;;5030915;28;20403;-73
2023/03/08 08:03:37;;;;;;;13.07;7.82;;;3.10;86.10;;;;;;5032436;28;20437;-73
2023/03/08 08:06:03;;;;;;;15.23;8.95;;;3.00;85.80;;;;;;5032416;28;20456;-73
2023/03/08 08:08:29;;;;;;;14.25;7.65;;;3.20;88.30;;;;;;5034136;28;20453;-73
2023/03/08 08:10:55;;;;;;;17.00;8.20;;;3.20;84.10;;;;;;5031819;28;20395;-72
2023/03/08 08:13:20;;;;;;;15.73;8.97;;;3.10;83.80;;;;;;5035294;28;20895;-73
2023/03/08 08:15:46;;;;;;;19.57;10.33;;;3.10;89.30;;;;;;5032395;28;20399;-74
2023/03/08 08:18:11;;;;;;;16.40;8.82;;;3.10;88.60;;;;;;5032883;28;20438;-73
2023/03/08 08:20:37;;;;;;;15.10;8.85;;;3.00;90.20;;;;;;5033034;28;20387;-74
2023/03/08 08:23:06;;;;;;;17.43;8.83;;;3.00;89.30;;;;;;5033415;28;20391;-73
2023/03/08 08:25:32;;;;;;;14.85;8.55;;;3.00;90.30;;;;;;5032612;28;20467;-72
2023/03/08 08:27:57;;;;;;;15.80;8.50;;;3.00;92.80;;;;;;5032391;28;20507;-72
2023/03/08 08:30:24;;;;;;;13.88;8.00;;;3.00;88.00;;;;;;5031751;28;20498;-72
2023/03/08 08:32:50;;;;;;;13.20;7.57;;;3.10;89.70;;;;;;5032257;28;20929;-73
2023/03/08 08:35:15;;;;;;;14.70;7.00;;;3.20;87.40;;;;;;5034744;28;20407;-72
2023/03/08 08:37:41;;;;;;;12.40;7.10;;;3.10;86.60;;;;;;5031517;28;20414;-73
2023/03/08 08:40:09;;;;;;;12.00;7.40;;;3.20;86.60;;;;;;5031295;28;20514;-72
2023/03/08 08:42:34;;;;;;;13.57;7.60;;;3.20;86.20;;;;;;5031261;28;20498;-73
2023/03/08 08:45:00;;;;;;;14.20;7.50;;;3.20;83.10;;;;;;5031303;28;20425;-72
2023/03/08 08:47:27;;;;;;;11.33;6.83;;;3.10;86.80;;;;;;5031450;28;20383;-74
2023/03/08 08:49:53;;;;;;;10.93;7.40;;;3.20;84.20;;;;;;5032219;28;20475;-73
2023/03/08 08:52:18;;;;;;;10.57;6.97;;;3.20;82.70;;;;;;5031054;28;20470;-73
2023/03/08 08:54:44;;;;;;;9.97;7.20;;;3.20;85.60;;;;;;5031414;28;20383;-73
2023/03/08 08:57:09;;;;;;;12.95;7.03;;;3.10;87.10;;;;;;5031330;28;20780;-72
2023/03/08 08:59:35;;;;;;;8.80;5.93;;;3.10;89.50;;;;;;5030969;28;20764;-72
2023/03/08 09:02:00;;;;;;;10.80;6.90;;;3.30;87.90;;;;;;5030004;28;20776;-75
2023/03/08 09:04:26;;;;;;;10.07;6.20;;;3.40;82.10;;;;;;5031242;28;20958;-73
2023/03/08 09:06:52;;;;;;;9.03;5.97;;;3.40;83.10;;;;;;5031030;28;20384;-73
2023/03/08 09:09:18;;;;;;;7.73;5.90;;;3.60;80.60;;;;;;5031210;28;20383;-73
2023/03/08 09:11:53;;;;;;;8.07;5.88;;;3.70;79.90;;;;;;5033203;28;20911;-72
2023/03/08 09:14:18;;;;;;;9.70;6.15;;;3.80;79.00;;;;;;5031496;28;20387;-73
2023/03/08 09:16:44;;;;;;;7.63;5.70;;;3.70;79.10;;;;;;5031035;28;20383;-73
2023/03/08 09:19:09;;;;;;;8.80;5.27;;;3.80;79.40;;;;;;5030969;28;20433;-73
2023/03/08 09:21:35;;;;;;;9.65;5.80;;;4.10;76.70;;;;;;5030828;28;20406;-72
2023/03/08 09:24:04;;;;;;;9.88;5.35;;;4.10;74.20;;;;;;5031346;28;20395;-73
2023/03/08 09:26:31;;;;;;;7.68;5.50;;;4.00;74.70;;;;;;5045268;28;20421;-74
2023/03/08 09:29:03;;;;;;;7.50;4.80;;;4.20;73.20;;;;;;5047541;28;20399;-73
2023/03/08 09:31:30;;;;;;;6.45;4.90;;;3.90;73.40;;;;;;5031476;28;20390;-72
2023/03/08 09:33:56;;;;;;;6.97;5.20;;;3.90;76.30;;;;;;5031410;28;20863;-74
2023/03/08 09:36:21;;;;;;;7.60;5.30;;;4.40;71.50;;;;;;5031109;28;20398;-73
2023/03/08 09:38:49;;;;;;;6.32;4.97;;;4.70;66.80;;;;;;5031009;28;20379;-74
2023/03/08 09:41:42;;;;;;;6.32;5.20;;;4.90;61.60;;;;;;5033742;28;20740;-72
2023/03/08 09:44:25;;;;;;;8.13;5.85;;;5.00;59.80;;;;;;5032807;28;20395;-72
2023/03/08 09:47:09;;;;;;;6.97;5.90;;;5.00;58.80;;;;;;5035786;28;20486;-73
2023/03/08 09:49:37;;;;;;;10.98;7.00;;;4.80;59.10;;;;;;5034576;28;20382;-72
2023/03/08 09:52:37;;;;;;;10.23;7.22;;;4.50;64.10;;;;;;5033413;28;20387;-74
2023/03/08 09:55:05;;;;;;;8.50;5.45;;;4.50;67.60;;;;;;4982241;28;20406;-73
2023/03/08 09:57:38;;;;;;;7.40;6.10;;;4.80;63.80;;;;;;5032627;28;20875;-72
2023/03/08 10:00:08;;;;;;;8.68;5.50;;;4.90;59.30;;;;;;5033131;28;20434;-72
2023/03/08 10:02:52;;;;;;;7.20;5.30;;;4.70;58.80;;;;;;5033325;28;20799;-73
2023/03/08 10:05:26;;;;;;;10.85;6.63;;;4.70;62.20;;;;;;5032935;28;20736;-74
2023/03/08 10:08:22;;;;;;;11.20;7.18;;;4.50;64.00;;;;;;5034249;28;20902;-73
2023/03/08 10:11:06;;;;;;;10.32;6.95;;;4.40;67.60;;;;;;5031594;28;20784;-72
2023/03/08 10:13:40;;;;;;;16.05;11.68;;;4.40;68.60;;;;;;5036609;28;20391;-73
2023/03/08 10:16:28;;;;;;;9.48;6.68;;;4.30;69.90;;;;;;5038598;28;20395;-73
2023/03/08 10:18:58;;;;;;;11.75;7.00;;;4.20;69.00;;;;;;5042780;28;20379;-73
2023/03/08 10:21:26;;;;;;;7.40;6.17;;;4.60;68.90;;;;;;5040428;28;20414;-73
2023/03/08 10:23:59;;;;;;;8.38;6.20;;;5.00;65.10;;;;;;5038356;28;20386;-74
2023/03/08 10:26:26;;;;;;;9.07;5.78;;;5.20;61.20;;;;;;5036888;28;20432;-73
2023/03/08 10:28:52;;;;;;;8.32;6.10;;;5.40;58.30;;;;;;5035313;28;20402;-72
2023/03/08 10:31:20;;;;;;;9.17;6.67;;;5.50;56.10;;;;;;5034350;28;20397;-73
2023/03/08 10:33:47;;;;;;;9.23;5.60;;;5.30;57.60;;;;;;5035384;28;20450;-72
2023/03/08 10:36:24;;;;;;;7.63;5.90;;;5.20;59.00;;;;;;5035118;28;20586;-73
2023/03/08 10:39:00;;;;;;;9.50;6.32;;;5.20;58.10;;;;;;5034685;28;20391;-73
2023/03/08 10:41:27;;;;;;;8.77;5.90;;;5.40;58.30;;;;;;5033621;28;20418;-74
2023/03/08 10:43:55;;;;;;;8.25;5.78;;;5.30;58.30;;;;;;5033759;28;20379;-74
2023/03/08 10:46:23;;;;;;;7.68;5.80;;;5.50;59.80;;;;;;5034042;28;20454;-72
2023/03/08 10:48:49;;;;;;;7.32;5.70;;;5.60;58.10;;;;;;5033471;28;20457;-74
2023/03/08 10:51:23;;;;;;;8.98;5.93;;;5.70;56.50;;;;;;5035126;28;20393;-73
2023/03/08 10:54:04;;;;;;;7.10;6.30;;;5.80;55.90;;;;;;5033924;28;20470;-70
2023/03/08 10:56:43;;;;;;;6.80;5.68;;;5.70;56.30;;;;;;5033870;28;20383;-72
2023/03/08 10:59:38;;;;;;;9.93;7.07;;;5.60;58.20;;;;;;5032483;28;20390;-73
2023/03/08 11:02:12;;;;;;;7.50;6.70;;;5.90;56.70;;;;;;5020219;28;20784;-73
2023/03/08 11:04:55;;;;;;;8.25;6.30;;;6.10;54.80;;;;;;5033408;28;20440;-73
2023/03/08 11:07:32;;;;;;;7.30;6.60;;;6.30;50.70;;;;;;5033398;28;20702;-72
2023/03/08 11:10:18;;;;;;;9.93;7.20;;;6.60;49.70;;;;;;5033454;28;20916;-73
2023/03/08 11:12:43;;;;;;;8.77;6.53;;;7.00;49.50;;;;;;5033366;28;20775;-74
2023/03/08 11:15:17;;;;;;;9.57;6.30;;;7.00;46.40;;;;;;5033940;28;20590;-74
2023/03/08 11:18:11;;;;;;;7.70;6.15;;;7.00;45.80;;;;;;5032345;28;20402;-74
2023/03/08 11:20:44;;;;;;;6.85;5.80;;;6.90;46.20;;;;;;5033128;28;20402;-72
2023/03/08 11:23:34;;;;;;;7.60;5.90;;;6.90;46.70;;;;;;5031567;28;20391;-72
2023/03/08 11:26:22;;;;;;;7.05;5.95;;;6.80;48.40;;;;;;5033469;28;20387;-73
2023/03/08 11:28:55;;;;;;;8.50;6.80;;;6.50;50.50;;;;;;5033253;28;20425;-73
2023/03/08 11:31:23;;;;;;;10.70;6.80;;;6.40;52.50;;;;;;5033255;28;20395;-74
2023/03/08 11:34:15;;;;;;;8.75;6.50;;;6.70;51.80;;;;;;5033163;28;20383;-73
2023/03/08 11:36:46;;;;;;;8.68;6.82;;;6.60;52.60;;;;;;5032596;28;20494;-73
2023/03/08 11:39:20;;;;;;;8.02;6.70;;;6.70;52.50;;;;;;5033285;28;20406;-73
2023/03/08 11:42:07;;;;;;;10.07;7.10;;;7.00;49.30;;;;;;5033194;28;20421;-74
2023/03/08 11:44:41;;;;;;;12.53;6.80;;;7.10;47.20;;;;;;5033382;28;20470;-72
2023/03/08 11:47:42;;;;;;;8.50;7.07;;;7.00;46.90;;;;;;5034441;28;20730;-73
2023/03/08 11:50:14;;;;;;;11.15;7.03;;;6.90;46.90;;;;;;5032846;28;20379;-74
2023/03/08 11:52:58;;;;;;;11.00;7.40;;;6.50;50.00;;;;;;5031802;28;20484;-73
2023/03/08 11:56:09;;;;;;;12.55;7.07;;;6.30;51.40;;;;;;5033148;28;20379;-72
2023/03/08 11:58:40;;;;;;;9.07;6.80;;;6.30;53.40;;;;;;5033138;28;20398;-73
2023/03/08 12:01:16;;;;;;;9.43;7.68;;;6.30;54.60;;;;;;5032175;28;20767;-72
2023/03/08 12:03:46;;;;;;;11.90;7.47;;;6.10;55.20;;;;;;5032771;28;20418;-73
2023/03/08 12:06:33;;;;;;;9.43;7.13;;;6.20;53.90;;;;;;5033349;28;20415;-72
2023/03/08 12:09:16;;;;;;;11.13;7.43;;;6.10;55.00;;;;;;5038969;28;20450;-74
2023/03/08 12:11:46;;;;;;;9.52;7.55;;;6.10;54.20;;;;;;5042024;28;20440;-73
2023/03/08 12:14:31;;;;;;;11.90;7.90;;;6.20;53.60;;;;;;5039824;28;20478;-73
2023/03/08 12:17:14;;;;;;;12.68;8.00;;;6.20;54.10;;;;;;5033128;28;20387;-73
2023/03/08 12:19:44;;;;;;;12.35;7.35;;;6.10;55.40;;;;;;5032853;28;20799;-75
2023/03/08 12:22:37;;;;;;;12.93;7.53;;;6.10;55.90;;;;;;5032557;28;20414;-75
2023/03/08 12:25:23;;;;;;;10.82;7.20;;;6.10;55.80;;;;;;5033007;28;20383;-74
2023/03/08 12:28:13;;;;;;;8.93;6.90;;;6.00;56.80;;;;;;5032056;28;20872;-72
2023/03/08 12:30:56;;;;;;;9.23;6.95;;;6.00;55.40;;;;;;5033466;28;20397;-73
2023/03/08 12:33:22;;;;;;;8.00;7.20;;;5.70;58.00;;;;;;5032683;28;20379;-73
2023/03/08 12:36:03;;;;;;;9.60;6.88;;;5.90;57.10;;;;;;5031333;28;20383;-74
2023/03/08 12:38:44;;;;;;;10.60;7.13;;;5.90;56.50;;;;;;5031937;28;20479;-72
2023/03/08 12:41:28;;;;;;;12.95;7.50;;;5.90;57.00;;;;;;5031763;28;20402;-74
2023/03/08 12:44:03;;;;;;;11.77;7.13;;;5.90;58.10;;;;;;5039857;28;20467;-73
2023/03/08 12:46:47;;;;;;;12.20;7.20;;;6.00;57.50;;;;;;5043732;28;20390;-74
2023/03/08 12:49:26;;;;;;;9.80;7.50;;;6.00;56.50;;;;;;5032344;28;20436;-74
2023/03/08 12:52:05;;;;;;;12.18;7.55;;;6.00;56.60;;;;;;5032492;28;20395;-74
2023/03/08 12:54:33;;;;;;;10.07;7.60;;;5.90;57.60;;;;;;5032510;28;20393;-73
2023/03/08 12:57:02;;;;;;;9.77;7.90;;;5.60;62.50;;;;;;5031359;28;20387;-74